This is the latest recevied weather packets stored in our database for station/object WA9SDJ-13. If no packets are shown the sender has not sent any weather packets the latest 1 day(s).
| Time | Temp. | Humidity | Pressure | Rain* | Wind** | Luminosity | Snow |
|---|---|---|---|---|---|---|---|
| 1777992021 | 13.33° C | 87% | 1008.4 hPa | 3.3 mm | 4.02 m/s, 330° | 25 W/m² | - |
| 1777991961 | 13.33° C | 87% | 1008.5 hPa | 3.3 mm | 4.02 m/s, 300° | 21 W/m² | - |
| 1777991901 | 13.33° C | 87% | 1008.4 hPa | 3.3 mm | 4.02 m/s, 333° | 18 W/m² | - |
| 1777991841 | 13.89° C | 87% | 1008.4 hPa | 3.3 mm | 4.47 m/s, 355° | 16 W/m² | - |
| 1777991781 | 13.89° C | 87% | 1008.4 hPa | 3.3 mm | 3.13 m/s, 316° | 16 W/m² | - |
| 1777991721 | 13.89° C | 87% | 1008.4 hPa | 3.56 mm | 1.79 m/s, 307° | 14 W/m² | - |
| 1777991661 | 13.89° C | 87% | 1008.3 hPa | 3.56 mm | 1.79 m/s, 313° | 11 W/m² | - |
| 1777991601 | 13.89° C | 87% | 1008.2 hPa | 3.56 mm | 2.24 m/s, 290° | 11 W/m² | - |
| 1777991541 | 13.89° C | 87% | 1008.2 hPa | 3.56 mm | 1.79 m/s, 343° | 11 W/m² | - |
| 1777991481 | 13.89° C | 87% | 1008.1 hPa | 3.56 mm | 1.79 m/s, 254° | 14 W/m² | - |
| 1777991420 | 13.89° C | 87% | 1008.1 hPa | 3.56 mm | 1.79 m/s, 312° | 16 W/m² | - |
| 1777991359 | 13.89° C | 87% | 1008 hPa | 3.56 mm | 1.79 m/s, 303° | 14 W/m² | - |
| 1777991298 | 13.89° C | 87% | 1008 hPa | 3.56 mm | 2.24 m/s, 309° | 16 W/m² | - |
| 1777991236 | 13.89° C | 87% | 1008 hPa | 3.56 mm | 1.79 m/s, 303° | 18 W/m² | - |
| 1777991175 | 13.89° C | 87% | 1008 hPa | 3.3 mm | 1.34 m/s, 245° | 18 W/m² | - |
| 1777991113 | 13.89° C | 87% | 1008 hPa | 3.3 mm | 0.89 m/s, 310° | 19 W/m² | - |
| 1777991052 | 13.89° C | 87% | 1008 hPa | 3.3 mm | 0.45 m/s, 305° | 19 W/m² | - |
| 1777990991 | 13.89° C | 87% | 1007.9 hPa | 3.3 mm | 0.45 m/s, 305° | 19 W/m² | - |
| 1777990928 | 13.89° C | 87% | 1007.9 hPa | 3.3 mm | 0.89 m/s, 305° | 21 W/m² | - |
| 1777990867 | 13.89° C | 87% | 1007.7 hPa | 3.3 mm | 1.34 m/s, 305° | 30 W/m² | - |
| 1777990806 | 13.89° C | 87% | 1007.5 hPa | 3.3 mm | 1.34 m/s, 290° | 44 W/m² | - |
| 1777990744 | 13.89° C | 87% | 1007.4 hPa | 3.3 mm | 1.79 m/s, 293° | 56 W/m² | - |
| 1777990683 | 13.89° C | 87% | 1007.3 hPa | 3.3 mm | 1.34 m/s, 312° | 69 W/m² | - |
| 1777990622 | 13.89° C | 87% | 1007.2 hPa | 3.3 mm | 1.34 m/s, 319° | 60 W/m² | - |
| 1777990562 | 13.89° C | 87% | 1007.3 hPa | 3.3 mm | 1.79 m/s, 321° | 55 W/m² | - |
* Rain latest hour (hover to see other rain measurements)
** Current wind speed in m/s (hover to see current wind gust speed)